Time;durP1;ratioP1;P1;durP2;ratioP2;P2;SDS_P1;SDS_P2;PMS_P1;PMS_P2;Temp;Humidity;BMP_temperature;BMP_pressure;BME280_temperature;BME280_humidity;BME280_pressure;Samples;Min_cycle;Max_cycle;Signal;HPM_P1;HPM_P2
2022/02/26 00:01:45;;;;;;;19.23;9.90;;;;;;;6.56;45.57;100605.63;5091651;28;20153;-77
2022/02/26 00:04:13;;;;;;;16.02;8.38;;;;;;;6.51;45.67;100600.59;5090289;28;20436;-78
2022/02/26 00:06:40;;;;;;;14.13;9.02;;;;;;;6.46;45.77;100613.97;5084865;28;20539;-78
2022/02/26 00:09:07;;;;;;;18.42;8.90;;;;;;;6.36;45.76;100614.50;5085075;28;20131;-76
2022/02/26 00:11:35;;;;;;;21.30;9.10;;;;;;;6.31;46.03;100610.31;5084776;28;20048;-78
2022/02/26 00:14:02;;;;;;;18.45;7.63;;;;;;;6.30;45.98;100619.13;5083791;28;20075;-79
2022/02/26 00:16:32;;;;;;;22.08;9.43;;;;;;;6.29;46.14;100620.03;5067717;28;20044;-78
2022/02/26 00:19:00;;;;;;;17.48;8.55;;;;;;;6.29;45.95;100622.66;5084290;28;20694;-77
2022/02/26 00:21:28;;;;;;;20.90;9.05;;;;;;;6.31;45.72;100633.91;5085152;28;20101;-77
2022/02/26 00:23:56;;;;;;;18.38;8.07;;;;;;;6.33;46.08;100636.47;5067865;28;20154;-75
2022/02/26 00:26:24;;;;;;;19.02;9.45;;;;;;;6.33;45.79;100639.09;5085504;28;20048;-78
2022/02/26 00:28:51;;;;;;;18.08;8.20;;;;;;;6.34;45.67;100638.19;5083343;28;20117;-77
2022/02/26 00:31:18;;;;;;;20.52;9.05;;;;;;;6.34;45.85;100642.56;5086148;28;20642;-75
2022/02/26 00:33:47;;;;;;;18.70;9.43;;;;;;;6.33;45.76;100641.72;5086227;28;20174;-77
2022/02/26 00:36:14;;;;;;;14.52;8.73;;;;;;;6.30;45.72;100642.72;5086584;28;20044;-77
2022/02/26 00:38:43;;;;;;;21.85;8.93;;;;;;;6.32;45.75;100650.53;5086435;28;20052;-78
2022/02/26 00:41:10;;;;;;;15.48;7.78;;;;;;;6.30;45.60;100657.59;5087045;28;20055;-78
2022/02/26 00:43:37;;;;;;;15.52;8.63;;;;;;;6.27;45.83;100661.22;5084936;28;20136;-76
2022/02/26 00:46:07;;;;;;;13.57;7.45;;;;;;;6.26;45.73;100662.13;5086357;28;20052;-77
2022/02/26 00:51:19;;;;;;;20.52;8.30;;;;;;;6.20;45.79;100669.47;5085278;28;20553;-77
2022/02/26 00:53:48;;;;;;;17.80;7.68;;;;;;;6.17;45.81;100675.69;5085141;28;20089;-76
2022/02/26 00:56:15;;;;;;;17.40;8.52;;;;;;;6.14;45.90;100673.25;5085279;28;20083;-77
2022/02/26 00:58:42;;;;;;;17.60;7.85;;;;;;;6.12;45.97;100680.31;5084430;28;20088;-77
2022/02/26 01:01:09;;;;;;;22.73;9.10;;;;;;;6.09;45.91;100672.59;5087077;28;20048;-78
2022/02/26 01:03:36;;;;;;;18.35;8.68;;;;;;;6.07;46.00;100683.16;5085923;28;20710;-76
2022/02/26 01:06:03;;;;;;;18.88;8.68;;;;;;;6.03;46.24;100672.88;5085146;28;20100;-76
2022/02/26 01:08:30;;;;;;;22.70;8.15;;;;;;;5.99;46.09;100671.31;5085673;28;20205;-78
2022/02/26 01:10:59;;;;;;;22.17;9.32;;;;;;;5.96;46.22;100674.09;5085833;28;20091;-75
2022/02/26 01:13:26;;;;;;;25.50;9.65;;;;;;;5.98;46.18;100678.34;5086331;28;20078;-77
2022/02/26 01:15:53;;;;;;;23.02;10.05;;;;;;;5.99;46.25;100676.56;5067942;28;20257;-78
2022/02/26 01:18:20;;;;;;;18.98;9.60;;;;;;;5.99;46.10;100673.94;5085514;28;20147;-76
2022/02/26 01:20:47;;;;;;;20.58;10.02;;;;;;;6.01;46.12;100680.81;5086878;28;20089;-78
2022/02/26 01:23:14;;;;;;;19.25;9.80;;;;;;;6.04;46.15;100674.59;5085480;28;20044;-77
2022/02/26 01:25:41;;;;;;;14.18;7.88;;;;;;;6.06;46.18;100672.75;5086842;28;20098;-77
2022/02/26 01:28:10;;;;;;;16.48;7.32;;;;;;;6.06;46.18;100675.34;5087619;28;20083;-78
2022/02/26 01:30:37;;;;;;;17.30;7.57;;;;;;;6.11;46.16;100682.09;5090947;28;20524;-77
2022/02/26 01:33:04;;;;;;;16.35;8.43;;;;;;;6.10;46.10;100684.78;5090123;28;20131;-77
2022/02/26 01:35:31;;;;;;;20.70;8.80;;;;;;;6.06;46.28;100680.59;5094953;28;20108;-76
2022/02/26 01:37:58;;;;;;;15.45;8.50;;;;;;;6.09;46.22;100685.72;5101929;28;20068;-77
2022/02/26 01:40:25;;;;;;;17.08;8.07;;;;;;;6.09;46.29;100688.34;5100362;28;20075;-76
2022/02/26 01:42:52;;;;;;;17.83;7.68;;;;;;;6.06;46.41;100689.31;5100696;28;20068;-79
2022/02/26 01:45:23;;;;;;;15.90;7.07;;;;;;;6.04;46.55;100685.06;5101120;28;20051;-76
2022/02/26 01:47:50;;;;;;;12.00;6.80;;;;;;;6.01;46.52;100677.34;5096579;28;20062;-79
2022/02/26 01:50:17;;;;;;;20.15;8.05;;;;;;;5.98;46.51;100686.22;5089587;28;20122;-77
2022/02/26 01:52:44;;;;;;;14.65;6.93;;;;;;;5.93;46.72;100680.28;5071917;28;20076;-76
2022/02/26 01:55:12;;;;;;;18.73;8.23;;;;;;;5.84;46.90;100676.31;5089373;28;20458;-76
2022/02/26 01:57:39;;;;;;;15.93;7.47;;;;;;;5.82;47.00;100680.78;5090760;28;20484;-76
2022/02/26 02:00:12;;;;;;;13.05;7.55;;;;;;;5.75;47.18;100682.84;5088848;28;20136;-78
2022/02/26 02:02:40;;;;;;;18.13;9.20;;;;;;;5.69;47.36;100690.13;5090116;28;20135;-77
2022/02/26 02:05:08;;;;;;;18.98;8.88;;;;;;;5.61;47.58;100695.72;5089621;28;20695;-76
2022/02/26 02:07:35;;;;;;;23.15;9.07;;;;;;;5.55;47.79;100703.84;5089561;28;20495;-77
2022/02/26 02:10:02;;;;;;;22.02;9.25;;;;;;;5.53;47.79;100703.09;5090117;28;20048;-78
2022/02/26 02:12:30;;;;;;;19.67;8.50;;;;;;;5.46;47.99;100709.50;5090457;28;20055;-79
2022/02/26 02:14:57;;;;;;;18.90;8.80;;;;;;;5.43;48.06;100709.63;5071229;28;20044;-78
2022/02/26 02:17:25;;;;;;;19.15;9.07;;;;;;;5.42;47.98;100714.03;5088562;28;20079;-77
2022/02/26 02:19:53;;;;;;;21.55;9.35;;;;;;;5.36;48.21;100715.13;5070704;28;20149;-79
2022/02/26 02:22:22;;;;;;;16.33;9.63;;;;;;;5.33;48.36;100717.03;5052898;28;20055;-78
2022/02/26 02:24:50;;;;;;;22.05;9.48;;;;;;;5.28;48.52;100719.84;5088743;28;20136;-78
2022/02/26 02:27:19;;;;;;;17.67;9.00;;;;;;;5.23;48.54;100724.44;5088704;28;20052;-77
2022/02/26 02:29:46;;;;;;;18.67;7.70;;;;;;;5.21;48.34;100725.44;5087694;28;20076;-77
2022/02/26 02:32:14;;;;;;;17.90;7.60;;;;;;;5.16;48.78;100723.84;5089865;28;20054;-78
2022/02/26 02:34:41;;;;;;;16.90;9.05;;;;;;;5.12;48.92;100724.03;5089315;28;20055;-77
2022/02/26 02:37:10;;;;;;;17.38;10.10;;;;;;;5.05;49.20;100728.69;5070543;28;20124;-79
2022/02/26 02:39:40;;;;;;;16.25;8.40;;;;;;;5.00;49.06;100735.03;5089810;28;20403;-81
2022/02/26 02:42:07;;;;;;;19.92;8.90;;;;;;;4.92;49.21;100737.97;5088508;28;20271;-76
2022/02/26 02:44:34;;;;;;;17.30;7.45;;;;;;;4.83;49.39;100741.81;5076037;28;20077;-77
2022/02/26 02:47:01;;;;;;;16.42;8.32;;;;;;;4.75;49.71;100742.13;5093869;28;20040;-79
2022/02/26 02:49:28;;;;;;;19.60;8.63;;;;;;;4.65;49.97;100753.03;5094604;28;20480;-80
2022/02/26 02:51:55;;;;;;;15.52;7.95;;;;;;;4.57;50.23;100755.94;5092654;28;20151;-76
2022/02/26 02:54:22;;;;;;;17.33;8.13;;;;;;;4.51;50.32;100753.56;5080013;22;20053;-79
2022/02/26 02:56:51;;;;;;;22.60;8.57;;;;;;;4.45;50.36;100765.13;5010797;28;20140;-77
2022/02/26 02:59:19;;;;;;;22.25;8.80;;;;;;;4.38;50.47;100755.81;5009957;28;20049;-77
2022/02/26 03:01:46;;;;;;;15.60;7.75;;;;;;;4.34;50.53;100760.31;5029001;28;20053;-77
2022/02/26 03:04:13;;;;;;;17.35;9.25;;;;;;;4.30;50.50;100769.16;5028286;28;20049;-79
2022/02/26 03:06:40;;;;;;;20.63;8.93;;;;;;;4.23;50.82;100765.06;5029588;28;20105;-78
2022/02/26 03:09:07;;;;;;;15.98;8.90;;;;;;;4.21;50.87;100772.13;5031713;28;20069;-79
2022/02/26 03:11:35;;;;;;;16.30;8.38;;;;;;;4.16;50.94;100781.91;5031218;28;20119;-79
2022/02/26 03:14:03;;;;;;;15.23;7.43;;;;;;;4.12;50.86;100782.94;5031799;28;20113;-78
2022/02/26 03:16:30;;;;;;;18.58;10.07;;;;;;;4.06;51.33;100788.41;5029095;28;20056;-78
2022/02/26 03:18:58;;;;;;;19.33;8.93;;;;;;;3.98;51.30;100792.16;5028008;28;20053;-79
2022/02/26 03:21:25;;;;;;;14.20;8.38;;;;;;;3.96;51.67;100787.88;5028283;28;20049;-78
2022/02/26 03:23:52;;;;;;;18.23;9.10;;;;;;;3.93;51.79;100794.06;5027734;28;20137;-77
2022/02/26 03:26:19;;;;;;;15.25;7.95;;;;;;;3.92;51.66;100796.75;5031149;28;20105;-77
2022/02/26 03:28:46;;;;;;;15.38;7.50;;;;;;;3.90;51.58;100799.41;5046311;28;20052;-79
2022/02/26 03:31:15;;;;;;;29.08;13.05;;;;;;;3.88;51.76;100808.22;5047213;28;20080;-77
2022/02/26 03:33:42;;;;;;;35.20;17.33;;;;;;;3.82;51.81;100811.91;5046751;28;20139;-77
2022/02/26 03:36:09;;;;;;;33.50;15.18;;;;;;;3.78;51.93;100821.63;5046902;28;20128;-77
2022/02/26 03:38:38;;;;;;;24.52;13.30;;;;;;;3.84;51.74;100825.78;5046361;28;20151;-77
2022/02/26 03:41:05;;;;;;;25.02;12.95;;;;;;;4.01;51.48;100822.53;5046727;28;20048;-76
2022/02/26 03:43:33;;;;;;;25.20;12.18;;;;;;;4.21;51.08;100832.25;5046943;28;20126;-77
2022/02/26 03:46:00;;;;;;;27.75;11.57;;;;;;;4.37;51.06;100829.94;5045270;28;20056;-79
2022/02/26 03:48:29;;;;;;;21.25;11.45;;;;;;;4.42;50.98;100827.16;5045654;28;20051;-76
2022/02/26 03:50:56;;;;;;;23.48;12.00;;;;;;;4.49;50.79;100833.88;5046945;28;20212;-75
2022/02/26 03:53:23;;;;;;;28.25;11.50;;;;;;;4.56;50.88;100832.72;5046521;28;20051;-79
2022/02/26 03:55:50;;;;;;;27.52;12.40;;;;;;;4.64;50.86;100843.72;5046314;28;20421;-77
2022/02/26 03:58:17;;;;;;;21.10;12.07;;;;;;;4.66;50.63;100839.28;5042796;28;20107;-76
2022/02/26 04:00:44;;;;;;;20.17;10.48;;;;;;;4.73;50.58;100846.00;5025750;28;20048;-77
2022/02/26 04:03:11;;;;;;;20.95;10.70;;;;;;;4.72;50.69;100844.31;5046846;28;20072;-77
2022/02/26 04:05:40;;;;;;;21.60;10.68;;;;;;;4.66;50.91;100855.00;5046565;28;20519;-76
2022/02/26 04:08:07;;;;;;;18.95;11.13;;;;;;;4.59;51.07;100857.00;5045470;28;20049;-77
2022/02/26 04:10:34;;;;;;;23.35;10.80;;;;;;;4.55;51.27;100860.63;5046530;28;20059;-78
2022/02/26 04:13:01;;;;;;;17.35;9.95;;;;;;;4.52;51.26;100860.78;5046682;28;20059;-76
2022/02/26 04:15:28;;;;;;;21.92;12.00;;;;;;;4.46;51.44;100865.38;5045844;28;20645;-77
2022/02/26 04:17:55;;;;;;;18.85;11.95;;;;;;;4.37;51.63;100867.41;5045702;28;20132;-77
2022/02/26 04:20:22;;;;;;;17.58;10.40;;;;;;;4.33;51.78;100864.97;5046452;28;20067;-77
2022/02/26 04:22:51;;;;;;;21.42;11.10;;;;;;;4.32;51.88;100879.81;5045863;28;20102;-79
2022/02/26 04:25:18;;;;;;;22.00;10.48;;;;;;;4.34;51.92;100870.16;5046693;28;20382;-77
2022/02/26 04:27:45;;;;;;;20.13;11.60;;;;;;;4.39;51.97;100880.41;5045563;28;20064;-77
2022/02/26 04:30:13;;;;;;;22.73;11.90;;;;;;;4.36;52.02;100888.41;5043983;28;20396;-77
2022/02/26 04:32:42;;;;;;;26.48;13.30;;;;;;;4.28;52.01;100878.19;5046521;28;20053;-77
2022/02/26 04:35:10;;;;;;;43.45;19.50;;;;;;;4.19;52.22;100891.59;5045299;28;20419;-77
2022/02/26 04:37:37;;;;;;;39.08;21.88;;;;;;;4.09;52.43;100898.94;5046045;28;20048;-77
2022/02/26 04:40:09;;;;;;;36.20;20.90;;;;;;;4.01;52.46;100893.13;5046502;28;20128;-79
2022/02/26 04:42:37;;;;;;;30.90;18.95;;;;;;;3.92;52.58;100894.28;5044789;28;20061;-77
2022/02/26 04:45:05;;;;;;;27.27;18.85;;;;;;;3.85;53.00;100902.41;5045613;28;20072;-77
2022/02/26 04:47:32;;;;;;;26.65;15.88;;;;;;;3.78;52.98;100900.00;5045023;28;20556;-78
2022/02/26 04:49:59;;;;;;;34.80;15.77;;;;;;;3.71;53.22;100897.63;5044896;28;20124;-77
2022/02/26 04:52:26;;;;;;;23.10;12.68;;;;;;;3.62;53.11;100904.03;5028398;28;20348;-77
2022/02/26 04:54:53;;;;;;;21.45;10.98;;;;;;;3.58;53.31;100908.50;5046993;28;20504;-76
2022/02/26 04:57:21;;;;;;;22.75;10.75;;;;;;;3.52;53.19;100911.31;5046709;28;20556;-77
2022/02/26 04:59:49;;;;;;;28.48;20.65;;;;;;;3.46;53.39;100911.53;5025537;28;20052;-77
2022/02/26 05:02:16;;;;;;;24.60;16.17;;;;;;;3.40;53.33;100914.31;5044451;28;20136;-74
2022/02/26 05:04:43;;;;;;;20.55;12.07;;;;;;;3.33;53.52;100915.41;5046075;28;20556;-77
2022/02/26 05:07:12;;;;;;;22.13;11.95;;;;;;;3.29;53.50;100912.03;5049097;28;20462;-77
2022/02/26 05:09:40;;;;;;;14.65;9.98;;;;;;;3.24;53.64;100917.44;5049685;28;20057;-78
2022/02/26 05:12:08;;;;;;;22.73;12.30;;;;;;;3.24;53.74;100925.25;5047751;28;20131;-78
2022/02/26 05:14:37;;;;;;;21.92;10.60;;;;;;;3.24;53.53;100935.69;5048118;28;20121;-78
2022/02/26 05:17:05;;;;;;;24.25;12.57;;;;;;;3.17;53.84;100933.31;5049114;28;20136;-76
2022/02/26 05:19:32;;;;;;;23.40;11.70;;;;;;;3.18;53.79;100938.47;5048451;28;20048;-77
2022/02/26 05:21:59;;;;;;;21.85;11.60;;;;;;;3.18;53.82;100941.09;5048317;28;20140;-77
2022/02/26 05:24:26;;;;;;;23.55;12.68;;;;;;;3.18;54.04;100951.53;5048567;28;20053;-77
2022/02/26 05:26:53;;;;;;;24.13;11.38;;;;;;;3.21;53.83;100961.88;5047364;28;20063;-77
2022/02/26 05:29:20;;;;;;;25.77;12.88;;;;;;;3.30;53.62;100959.91;5047524;28;20126;-75
2022/02/26 05:31:51;;;;;;;24.45;13.30;;;;;;;3.44;53.45;100974.25;5049134;28;20061;-77
2022/02/26 05:34:18;;;;;;;23.23;13.93;;;;;;;3.51;53.33;100968.81;5048850;28;20088;-76
2022/02/26 05:36:45;;;;;;;29.23;14.73;;;;;;;3.60;53.44;100981.56;5048663;28;20055;-78
2022/02/26 05:39:13;;;;;;;23.73;12.40;;;;;;;3.67;53.32;100983.09;5048138;28;20248;-76
2022/02/26 05:41:41;;;;;;;26.80;13.15;;;;;;;3.77;53.32;100991.50;5048166;28;20705;-76
2022/02/26 05:44:08;;;;;;;24.27;13.23;;;;;;;3.85;53.23;100988.63;5048184;28;20060;-77
2022/02/26 05:46:35;;;;;;;22.95;12.73;;;;;;;3.99;52.87;100992.50;5049090;28;20140;-79
2022/02/26 05:49:04;;;;;;;26.77;12.77;;;;;;;4.17;52.88;101005.84;5048453;28;20128;-77
2022/02/26 05:51:34;;;;;;;27.40;14.90;;;;;;;4.31;52.55;101001.00;5049020;28;20140;-78
2022/02/26 05:54:01;;;;;;;24.55;13.23;;;;;;;4.47;52.29;101008.34;5046896;28;20132;-78
2022/02/26 05:56:28;;;;;;;21.58;12.38;;;;;;;4.57;52.19;101013.19;5048217;28;20136;-77
2022/02/26 05:58:55;;;;;;;23.35;12.30;;;;;;;4.63;52.07;101014.72;5046722;28;20072;-78
2022/02/26 06:01:22;;;;;;;27.35;13.45;;;;;;;4.74;52.02;101011.72;5047908;28;20515;-78
2022/02/26 06:03:50;;;;;;;20.80;12.32;;;;;;;4.81;52.03;101018.44;5048246;28;20139;-81
2022/02/26 06:06:20;;;;;;;28.70;15.80;;;;;;;4.86;51.96;101010.41;4997666;28;20048;-77
2022/02/26 06:08:48;;;;;;;28.85;13.23;;;;;;;4.85;51.89;101020.03;5047505;28;20055;-77
2022/02/26 06:11:15;;;;;;;26.67;14.82;;;;;;;4.86;51.87;101026.13;5049823;28;20053;-78
2022/02/26 06:13:42;;;;;;;32.55;14.10;;;;;;;4.86;52.06;101021.75;5050750;28;20603;-79
2022/02/26 06:16:12;;;;;;;32.10;15.02;;;;;;;4.88;52.26;101038.25;5049344;28;20600;-78
2022/02/26 06:18:39;;;;;;;25.70;13.52;;;;;;;4.91;52.06;101042.53;5049905;28;20095;-76
2022/02/26 06:21:06;;;;;;;32.10;15.75;;;;;;;4.96;52.29;101048.44;5050644;28;20109;-77
2022/02/26 06:23:35;;;;;;;34.42;17.10;;;;;;;5.03;52.26;101044.69;5051465;28;20041;-77
2022/02/26 06:26:02;;;;;;;33.33;17.00;;;;;;;5.10;52.03;101048.78;5052680;28;20114;-80
2022/02/26 06:28:29;;;;;;;40.20;19.75;;;;;;;5.15;52.05;101056.50;5052932;28;20587;-81
2022/02/26 06:30:56;;;;;;;39.85;19.65;;;;;;;5.20;52.14;101057.16;5057473;28;20109;-82
2022/02/26 06:33:23;;;;;;;40.15;19.45;;;;;;;5.28;51.89;101067.38;5055129;28;20627;-77
2022/02/26 06:35:52;;;;;;;41.25;21.52;;;;;;;5.34;51.92;101072.34;5054748;28;20124;-79
2022/02/26 06:38:20;;;;;;;36.65;19.35;;;;;;;5.40;51.78;101085.22;5035718;28;20493;-83
2022/02/26 06:40:49;;;;;;;35.72;20.02;;;;;;;5.45;51.76;101085.06;5053867;28;20117;-83
2022/02/26 06:43:17;;;;;;;34.70;19.63;;;;;;;5.52;51.80;101090.00;5056461;28;20075;-80
2022/02/26 06:45:44;;;;;;;41.92;22.05;;;;;;;5.62;51.64;101089.63;5041491;28;20470;-84
2022/02/26 06:48:12;;;;;;;41.92;22.70;;;;;;;5.72;51.46;101097.09;5039145;28;20140;-83
2022/02/26 06:50:39;;;;;;;35.70;20.95;;;;;;;5.80;51.39;101103.81;5051076;28;20440;-80
2022/02/26 06:53:06;;;;;;;37.88;22.65;;;;;;;5.82;51.41;101102.84;5053865;28;20763;-79
2022/02/26 06:55:33;;;;;;;40.65;21.20;;;;;;;5.87;51.55;101113.13;5052868;28;20053;-80
2022/02/26 06:58:02;;;;;;;40.85;20.85;;;;;;;5.95;51.49;101113.69;5055366;28;20110;-86
2022/02/26 07:00:30;;;;;;;36.90;22.38;;;;;;;6.05;51.21;101114.22;5045682;28;20425;-80
2022/02/26 07:02:59;;;;;;;40.13;21.48;;;;;;;6.11;51.13;101117.44;5031059;28;20068;-77
2022/02/26 07:05:30;;;;;;;41.33;21.83;;;;;;;6.19;51.19;101117.13;5021212;28;20084;-77
2022/02/26 07:07:58;;;;;;;37.63;20.73;;;;;;;6.25;51.16;101122.16;5022640;28;20132;-75
2022/02/26 07:10:25;;;;;;;38.72;21.10;;;;;;;6.32;50.99;101131.47;5016536;28;20333;-78
2022/02/26 07:12:52;;;;;;;41.78;22.27;;;;;;;6.42;50.96;101134.56;5037676;28;20049;-75
2022/02/26 07:15:21;;;;;;;46.72;24.45;;;;;;;6.52;50.84;101135.06;5035413;28;20512;-73
2022/02/26 07:17:48;;;;;;;41.22;21.33;;;;;;;6.62;50.71;101136.38;5031410;28;20119;-72
2022/02/26 07:20:15;;;;;;;43.45;23.58;;;;;;;6.72;50.63;101143.84;5034572;28;20133;-73
2022/02/26 07:22:42;;;;;;;48.58;26.52;;;;;;;6.77;50.50;101147.13;5036371;28;20080;-73
2022/02/26 07:25:10;;;;;;;49.53;26.80;;;;;;;6.82;50.56;101148.66;5043208;28;20088;-74
2022/02/26 07:27:37;;;;;;;51.70;25.73;;;;;;;6.81;50.54;101157.47;5043510;28;20045;-75
2022/02/26 07:30:07;;;;;;;60.88;32.72;;;;;;;6.81;50.68;101157.47;5035419;28;20105;-71
2022/02/26 07:32:36;;;;;;;60.80;33.83;;;;;;;6.72;50.98;101155.22;5031360;28;20634;-70
2022/02/26 07:35:04;;;;;;;58.38;30.85;;;;;;;6.67;51.34;101157.19;5035208;28;20072;-74
2022/02/26 07:37:31;;;;;;;70.35;34.70;;;;;;;6.64;51.46;101160.78;5034240;28;20052;-75
2022/02/26 07:39:58;;;;;;;83.68;38.55;;;;;;;6.64;51.79;101165.19;5022861;28;20143;-74
2022/02/26 07:42:26;;;;;;;89.43;48.50;;;;;;;6.68;51.79;101167.63;5024064;28;20052;-78
2022/02/26 07:44:53;;;;;;;42.78;27.98;;;;;;;6.72;51.81;101170.09;5024210;28;20050;-71
2022/02/26 07:47:20;;;;;;;36.25;21.08;;;;;;;6.75;52.07;101173.44;5021869;28;20128;-72
2022/02/26 07:49:50;;;;;;;33.10;19.23;;;;;;;6.81;52.15;101175.00;5023388;28;20687;-76
2022/02/26 07:52:17;;;;;;;33.15;20.88;;;;;;;6.87;52.18;101178.19;5004640;28;20060;-70
2022/02/26 07:54:44;;;;;;;28.88;18.25;;;;;;;6.83;52.58;101186.28;5020728;28;20540;-72
2022/02/26 07:57:11;;;;;;;37.03;21.23;;;;;;;6.88;52.58;101185.16;5022696;28;20045;-71
2022/02/26 07:59:38;;;;;;;35.60;23.95;;;;;;;6.98;52.48;101180.38;5021074;28;20127;-74
2022/02/26 08:02:05;;;;;;;39.35;26.67;;;;;;;6.99;52.67;101186.50;5020812;28;20073;-70
2022/02/26 08:04:32;;;;;;;43.38;25.92;;;;;;;7.03;52.60;101188.06;5022085;28;20069;-69
2022/02/26 08:07:01;;;;;;;30.40;20.25;;;;;;;7.12;52.74;101195.53;5023186;28;20079;-71
2022/02/26 08:09:28;;;;;;;33.17;23.33;;;;;;;7.12;52.78;101200.81;5033453;28;20181;-70
2022/02/26 08:11:55;;;;;;;31.05;20.80;;;;;;;7.20;52.69;101206.59;5034733;28;20040;-72
2022/02/26 08:14:22;;;;;;;22.58;16.95;;;;;;;7.14;53.03;101211.25;5029481;28;20048;-73
2022/02/26 08:16:49;;;;;;;26.80;16.95;;;;;;;7.12;53.25;101223.59;5032692;28;20045;-71
2022/02/26 08:19:16;;;;;;;25.25;18.42;;;;;;;7.20;53.00;101206.59;5036747;28;20136;-73
2022/02/26 08:21:44;;;;;;;25.80;16.63;;;;;;;7.18;53.10;101212.81;5030981;28;20055;-73
2022/02/26 08:24:14;;;;;;;26.25;16.90;;;;;;;7.06;53.25;101217.69;5029792;28;20132;-75
2022/02/26 08:26:44;;;;;;;31.40;18.65;;;;;;;6.98;53.58;101214.50;5034288;28;20587;-75
2022/02/26 08:29:11;;;;;;;29.73;20.15;;;;;;;6.84;54.18;101224.75;5032626;28;20037;-73
2022/02/26 08:31:38;;;;;;;29.98;18.90;;;;;;;6.81;54.27;101222.25;5034016;28;20055;-72
2022/02/26 08:34:06;;;;;;;26.77;16.05;;;;;;;6.73;54.47;101217.31;5032948;28;20045;-72
2022/02/26 08:36:40;;;;;;;24.95;18.48;;;;;;;6.65;54.68;101230.75;5034003;28;20120;-73
2022/02/26 08:39:08;;;;;;;35.03;21.63;;;;;;;6.63;54.82;101231.75;5030133;28;20129;-71
2022/02/26 08:41:37;;;;;;;29.90;15.90;;;;;;;6.60;55.01;101232.69;5026244;28;20553;-71
2022/02/26 08:44:04;;;;;;;33.25;19.40;;;;;;;6.66;54.82;101242.97;5026245;28;20134;-71
2022/02/26 08:46:31;;;;;;;33.50;20.77;;;;;;;6.66;55.07;101242.09;5026162;28;20497;-72
2022/02/26 08:48:59;;;;;;;39.38;21.65;;;;;;;6.69;54.89;101244.59;5027563;28;20133;-72
2022/02/26 08:51:26;;;;;;;32.50;21.23;;;;;;;6.69;55.18;101247.22;5027222;28;20668;-77
2022/02/26 08:53:54;;;;;;;31.63;20.55;;;;;;;6.77;55.24;101244.28;5026019;28;20141;-69
2022/02/26 08:56:22;;;;;;;30.55;17.98;;;;;;;7.01;54.79;101252.94;5026326;28;20053;-71
2022/02/26 08:58:52;;;;;;;30.92;19.08;;;;;;;7.26;54.34;101252.78;5015909;28;20041;-74
2022/02/26 09:01:21;;;;;;;28.38;18.02;;;;;;;7.52;54.20;101256.03;5036203;28;20505;-70
2022/02/26 09:03:50;;;;;;;31.55;20.15;;;;;;;7.72;53.61;101258.63;5039489;28;20104;-71
2022/02/26 09:06:17;;;;;;;33.00;21.83;;;;;;;7.78;52.97;101253.13;5036636;28;20045;-75
2022/02/26 09:08:45;;;;;;;33.05;19.98;;;;;;;7.95;52.90;101254.97;5045395;28;20045;-71
2022/02/26 09:11:12;;;;;;;26.73;18.58;;;;;;;8.13;52.34;101257.69;5039205;28;20128;-72
2022/02/26 09:13:45;;;;;;;27.50;18.45;;;;;;;8.09;52.01;101262.25;5035487;28;20051;-72
2022/02/26 09:16:15;;;;;;;26.52;20.17;;;;;;;8.11;52.05;101268.28;5033265;28;20037;-75
2022/02/26 09:18:43;;;;;;;25.95;17.63;;;;;;;8.03;52.36;101278.28;5041957;28;20457;-74
2022/02/26 09:21:10;;;;;;;26.08;17.92;;;;;;;8.06;52.39;101267.63;5041528;28;20063;-70
2022/02/26 09:23:37;;;;;;;26.30;19.33;;;;;;;8.07;52.14;101277.25;5041987;28;20049;-72
2022/02/26 09:26:06;;;;;;;26.15;17.63;;;;;;;8.02;52.37;101284.50;5051114;28;20200;-74
2022/02/26 09:28:33;;;;;;;25.13;17.42;;;;;;;8.09;52.44;101282.44;5050576;28;20059;-72
2022/02/26 09:31:01;;;;;;;25.90;17.88;;;;;;;8.24;51.99;101285.22;5052990;28;20057;-76
2022/02/26 09:33:30;;;;;;;21.98;17.00;;;;;;;8.42;51.46;101290.59;5054573;28;20055;-76
2022/02/26 09:35:57;;;;;;;26.90;16.55;;;;;;;8.71;50.98;101294.47;5053150;28;20056;-72
2022/02/26 09:38:24;;;;;;;18.30;13.68;;;;;;;8.91;50.28;101293.53;5054882;28;20049;-75
2022/02/26 09:40:53;;;;;;;23.48;15.93;;;;;;;9.03;49.49;101299.94;5055707;28;20108;-73
2022/02/26 09:43:25;;;;;;;18.70;12.85;;;;;;;9.07;49.30;101298.88;5051456;28;20101;-72
2022/02/26 09:45:53;;;;;;;19.50;11.00;;;;;;;9.50;49.23;101312.53;5052164;28;20037;-73
2022/02/26 09:48:21;;;;;;;19.73;13.60;;;;;;;9.68;47.30;101300.19;5039232;28;20615;-73
2022/02/26 09:50:50;;;;;;;19.17;14.35;;;;;;;9.52;47.40;101301.91;5040589;28;20045;-73
2022/02/26 09:53:17;;;;;;;17.38;13.02;;;;;;;9.55;47.21;101307.03;5040398;28;20042;-72
2022/02/26 09:55:45;;;;;;;21.13;11.90;;;;;;;9.80;47.04;101314.53;5040033;28;20145;-74
2022/02/26 09:58:14;;;;;;;21.70;14.20;;;;;;;9.89;46.97;101321.97;5040186;28;20066;-75
2022/02/26 10:00:41;;;;;;;22.25;16.30;;;;;;;9.88;46.90;101314.13;5040794;28;20049;-73
2022/02/26 10:03:25;;;;;;;22.02;17.10;;;;;;;9.55;47.84;101318.41;5042700;28;20057;-72
2022/02/26 10:06:09;;;;;;;19.40;13.68;;;;;;;9.35;47.76;101321.22;5042010;28;20053;-72
2022/02/26 10:08:38;;;;;;;18.38;11.68;;;;;;;9.34;47.61;101325.63;5040209;28;20038;-75
2022/02/26 10:11:06;;;;;;;18.30;12.77;;;;;;;9.31;46.82;101322.28;5027456;28;20052;-77
2022/02/26 10:13:41;;;;;;;22.40;14.20;;;;;;;9.40;46.79;101326.25;5028299;28;20100;-73
2022/02/26 10:16:08;;;;;;;20.83;13.47;;;;;;;9.40;46.77;101334.16;5026100;28;20045;-75
2022/02/26 10:18:35;;;;;;;20.98;14.10;;;;;;;9.53;46.56;101327.34;5025165;28;20133;-71
2022/02/26 10:21:02;;;;;;;22.70;15.88;;;;;;;9.64;47.16;101332.94;5029120;28;20471;-74
2022/02/26 10:23:31;;;;;;;15.77;10.80;;;;;;;10.10;46.60;101340.22;5028748;28;20103;-73
2022/02/26 10:26:08;;;;;;;19.17;11.80;;;;;;;10.45;44.78;101340.16;5026785;28;20912;-74
2022/02/26 10:28:41;;;;;;;12.27;9.93;;;;;;;10.52;43.61;101337.09;5026267;28;20041;-73
2022/02/26 10:31:10;;;;;;;14.52;10.00;;;;;;;10.36;43.35;101336.22;5025339;28;20630;-73
2022/02/26 10:33:37;;;;;;;15.70;10.55;;;;;;;10.52;43.60;101336.25;5025923;28;20053;-71
2022/02/26 10:36:08;;;;;;;16.30;9.27;;;;;;;11.31;42.99;101337.09;5025374;28;20045;-72
2022/02/26 10:38:40;;;;;;;14.85;10.20;;;;;;;11.81;41.30;101335.88;5026081;28;20072;-70
2022/02/26 10:41:08;;;;;;;13.40;10.05;;;;;;;11.50;40.58;101340.38;5036689;28;20810;-73
2022/02/26 10:43:44;;;;;;;17.00;12.35;;;;;;;11.11;41.76;101341.75;5042681;28;20128;-70
2022/02/26 10:46:30;;;;;;;13.05;9.50;;;;;;;10.49;41.75;101346.97;5042010;28;20071;-72
2022/02/26 10:49:00;;;;;;;;;;;;;;;10.43;42.27;101342.03;5045200;28;20048;-69
2022/02/26 10:51:30;;;;;;;21.45;12.40;;;;;;;9.91;44.35;101354.38;5030433;28;19921;-70
2022/02/26 10:54:00;;;;;;;17.10;11.13;;;;;;;9.71;44.15;101359.84;5014092;28;20129;-70
2022/02/26 10:56:33;;;;;;;16.45;11.20;;;;;;;9.65;44.39;101358.38;5029945;28;20402;-70
2022/02/26 10:59:00;;;;;;;17.02;11.43;;;;;;;9.67;44.27;101364.44;5026118;28;20079;-69
2022/02/26 11:01:27;;;;;;;16.45;11.55;;;;;;;9.74;44.32;101357.91;5014828;28;20121;-68
2022/02/26 11:03:56;;;;;;;12.45;6.68;;;;;;;9.79;43.52;101365.56;5030881;28;20556;-70
2022/02/26 11:06:24;;;;;;;7.72;4.00;;;;;;;9.99;41.90;101361.91;5026586;28;20046;-70
2022/02/26 11:08:52;;;;;;;8.65;5.40;;;;;;;10.46;41.16;101363.84;5029572;28;20048;-70
2022/02/26 11:11:23;;;;;;;9.15;5.55;;;;;;;11.06;40.23;101363.16;5028798;28;20049;-70
2022/02/26 11:13:52;;;;;;;7.95;4.82;;;;;;;11.43;39.26;101360.19;5027192;28;20041;-69
2022/02/26 11:16:20;;;;;;;10.10;4.97;;;;;;;11.29;38.89;101361.84;5028407;28;20078;-72
2022/02/26 11:18:49;;;;;;;11.77;5.63;;;;;;;11.15;39.00;101374.16;5013260;28;20037;-72
2022/02/26 11:21:18;;;;;;;17.70;10.93;;;;;;;11.31;39.96;101367.06;5032524;28;20267;-73
2022/02/26 11:23:46;;;;;;;19.17;9.68;;;;;;;11.38;40.65;101365.75;5030592;28;20583;-73
2022/02/26 11:26:14;;;;;;;16.75;9.70;;;;;;;11.20;41.44;101380.91;5025330;28;20048;-73